sensor_id;sensor_type;location;lat;lon;timestamp;P1;durP1;ratioP1;P2;durP2;ratioP2
3443;SDS011;1736;52.068;6.968;2023-09-19T00:01:32;9.15;;;3.60;;
3443;SDS011;1736;52.068;6.968;2023-09-19T00:04:00;11.00;;;3.90;;
3443;SDS011;1736;52.068;6.968;2023-09-19T00:06:28;15.18;;;4.00;;
3443;SDS011;1736;52.068;6.968;2023-09-19T00:08:56;9.52;;;3.75;;
3443;SDS011;1736;52.068;6.968;2023-09-19T00:11:24;11.03;;;3.60;;
3443;SDS011;1736;52.068;6.968;2023-09-19T00:13:51;10.32;;;3.90;;
3443;SDS011;1736;52.068;6.968;2023-09-19T00:16:19;11.60;;;3.67;;
3443;SDS011;1736;52.068;6.968;2023-09-19T00:18:46;9.25;;;3.80;;
3443;SDS011;1736;52.068;6.968;2023-09-19T00:21:15;8.57;;;3.30;;
3443;SDS011;1736;52.068;6.968;2023-09-19T00:23:42;8.77;;;3.60;;
3443;SDS011;1736;52.068;6.968;2023-09-19T00:26:08;9.45;;;3.60;;
3443;SDS011;1736;52.068;6.968;2023-09-19T00:28:35;10.52;;;3.20;;
3443;SDS011;1736;52.068;6.968;2023-09-19T00:31:01;11.18;;;3.70;;
3443;SDS011;1736;52.068;6.968;2023-09-19T00:33:28;15.33;;;3.23;;
3443;SDS011;1736;52.068;6.968;2023-09-19T00:35:56;14.52;;;3.90;;
3443;SDS011;1736;52.068;6.968;2023-09-19T00:38:24;13.10;;;3.95;;
3443;SDS011;1736;52.068;6.968;2023-09-19T00:40:53;12.80;;;3.58;;
3443;SDS011;1736;52.068;6.968;2023-09-19T00:43:21;14.35;;;3.88;;
3443;SDS011;1736;52.068;6.968;2023-09-19T00:45:50;9.70;;;3.22;;
3443;SDS011;1736;52.068;6.968;2023-09-19T00:48:20;8.68;;;3.33;;
3443;SDS011;1736;52.068;6.968;2023-09-19T00:50:48;12.20;;;3.80;;
3443;SDS011;1736;52.068;6.968;2023-09-19T00:53:17;12.35;;;3.63;;
3443;SDS011;1736;52.068;6.968;2023-09-19T00:55:47;13.53;;;3.70;;
3443;SDS011;1736;52.068;6.968;2023-09-19T00:58:15;10.60;;;3.50;;
3443;SDS011;1736;52.068;6.968;2023-09-19T01:00:42;14.68;;;3.80;;
3443;SDS011;1736;52.068;6.968;2023-09-19T01:03:10;13.40;;;3.70;;
3443;SDS011;1736;52.068;6.968;2023-09-19T01:05:38;11.02;;;3.60;;
3443;SDS011;1736;52.068;6.968;2023-09-19T01:08:05;11.32;;;3.60;;
3443;SDS011;1736;52.068;6.968;2023-09-19T01:10:32;13.20;;;3.53;;
3443;SDS011;1736;52.068;6.968;2023-09-19T01:13:03;10.88;;;4.05;;
3443;SDS011;1736;52.068;6.968;2023-09-19T01:15:38;9.55;;;3.50;;
3443;SDS011;1736;52.068;6.968;2023-09-19T01:18:11;10.35;;;2.90;;
3443;SDS011;1736;52.068;6.968;2023-09-19T01:20:49;9.50;;;3.30;;
3443;SDS011;1736;52.068;6.968;2023-09-19T01:23:23;9.02;;;3.38;;
3443;SDS011;1736;52.068;6.968;2023-09-19T01:26:05;17.30;;;3.73;;
3443;SDS011;1736;52.068;6.968;2023-09-19T01:28:39;15.20;;;3.57;;
3443;SDS011;1736;52.068;6.968;2023-09-19T01:31:20;10.63;;;3.67;;
3443;SDS011;1736;52.068;6.968;2023-09-19T01:33:58;11.57;;;3.10;;
3443;SDS011;1736;52.068;6.968;2023-09-19T01:36:26;9.15;;;3.15;;
3443;SDS011;1736;52.068;6.968;2023-09-19T01:38:54;10.60;;;3.23;;
3443;SDS011;1736;52.068;6.968;2023-09-19T01:41:26;9.30;;;3.17;;
3443;SDS011;1736;52.068;6.968;2023-09-19T01:43:59;9.82;;;3.13;;
3443;SDS011;1736;52.068;6.968;2023-09-19T01:46:33;8.75;;;3.40;;
3443;SDS011;1736;52.068;6.968;2023-09-19T01:49:04;6.90;;;3.15;;
3443;SDS011;1736;52.068;6.968;2023-09-19T01:51:43;8.00;;;2.90;;
3443;SDS011;1736;52.068;6.968;2023-09-19T01:54:18;9.60;;;3.25;;
3443;SDS011;1736;52.068;6.968;2023-09-19T01:56:54;9.02;;;3.00;;
3443;SDS011;1736;52.068;6.968;2023-09-19T01:59:30;11.65;;;3.60;;
3443;SDS011;1736;52.068;6.968;2023-09-19T02:02:03;9.15;;;3.38;;
3443;SDS011;1736;52.068;6.968;2023-09-19T02:04:32;7.60;;;3.30;;
3443;SDS011;1736;52.068;6.968;2023-09-19T02:07:00;12.50;;;3.90;;
3443;SDS011;1736;52.068;6.968;2023-09-19T02:09:27;10.02;;;3.90;;
3443;SDS011;1736;52.068;6.968;2023-09-19T02:11:54;11.95;;;3.88;;
3443;SDS011;1736;52.068;6.968;2023-09-19T02:14:21;8.40;;;3.10;;
3443;SDS011;1736;52.068;6.968;2023-09-19T02:16:47;10.73;;;3.63;;
3443;SDS011;1736;52.068;6.968;2023-09-19T02:19:16;11.48;;;3.70;;
3443;SDS011;1736;52.068;6.968;2023-09-19T02:21:42;13.05;;;3.88;;
3443;SDS011;1736;52.068;6.968;2023-09-19T02:24:09;12.65;;;3.70;;
3443;SDS011;1736;52.068;6.968;2023-09-19T02:26:37;10.38;;;3.40;;
3443;SDS011;1736;52.068;6.968;2023-09-19T02:29:04;14.20;;;3.55;;
3443;SDS011;1736;52.068;6.968;2023-09-19T02:31:31;13.93;;;4.10;;
3443;SDS011;1736;52.068;6.968;2023-09-19T02:33:57;8.97;;;3.40;;
3443;SDS011;1736;52.068;6.968;2023-09-19T02:36:26;9.30;;;3.43;;
3443;SDS011;1736;52.068;6.968;2023-09-19T02:38:53;10.85;;;3.42;;
3443;SDS011;1736;52.068;6.968;2023-09-19T02:41:19;11.35;;;3.38;;
3443;SDS011;1736;52.068;6.968;2023-09-19T02:43:46;9.90;;;3.22;;
3443;SDS011;1736;52.068;6.968;2023-09-19T02:46:13;11.27;;;4.20;;
3443;SDS011;1736;52.068;6.968;2023-09-19T02:48:40;8.93;;;3.75;;
3443;SDS011;1736;52.068;6.968;2023-09-19T02:51:07;15.10;;;3.60;;
3443;SDS011;1736;52.068;6.968;2023-09-19T02:53:35;9.20;;;3.55;;
3443;SDS011;1736;52.068;6.968;2023-09-19T02:56:01;14.80;;;3.80;;
3443;SDS011;1736;52.068;6.968;2023-09-19T02:58:29;11.13;;;3.70;;
3443;SDS011;1736;52.068;6.968;2023-09-19T03:01:07;15.33;;;3.93;;
3443;SDS011;1736;52.068;6.968;2023-09-19T03:03:34;10.95;;;3.20;;
3443;SDS011;1736;52.068;6.968;2023-09-19T03:06:02;10.85;;;3.55;;
3443;SDS011;1736;52.068;6.968;2023-09-19T03:08:29;8.82;;;3.17;;
3443;SDS011;1736;52.068;6.968;2023-09-19T03:10:57;14.02;;;3.50;;
3443;SDS011;1736;52.068;6.968;2023-09-19T03:13:25;13.23;;;3.37;;
3443;SDS011;1736;52.068;6.968;2023-09-19T03:15:54;12.20;;;3.03;;
3443;SDS011;1736;52.068;6.968;2023-09-19T03:18:21;9.17;;;3.20;;
3443;SDS011;1736;52.068;6.968;2023-09-19T03:20:52;7.87;;;2.97;;
3443;SDS011;1736;52.068;6.968;2023-09-19T03:23:20;9.00;;;2.90;;
3443;SDS011;1736;52.068;6.968;2023-09-19T03:25:46;10.23;;;2.90;;
3443;SDS011;1736;52.068;6.968;2023-09-19T03:28:15;7.30;;;3.13;;
3443;SDS011;1736;52.068;6.968;2023-09-19T03:30:41;10.73;;;3.50;;
3443;SDS011;1736;52.068;6.968;2023-09-19T03:33:08;14.40;;;3.23;;
3443;SDS011;1736;52.068;6.968;2023-09-19T03:35:37;8.80;;;3.70;;
3443;SDS011;1736;52.068;6.968;2023-09-19T03:38:03;11.37;;;3.77;;
3443;SDS011;1736;52.068;6.968;2023-09-19T03:40:30;10.00;;;3.00;;
3443;SDS011;1736;52.068;6.968;2023-09-19T03:42:58;11.43;;;3.30;;
3443;SDS011;1736;52.068;6.968;2023-09-19T03:45:28;13.93;;;3.63;;
3443;SDS011;1736;52.068;6.968;2023-09-19T03:47:54;10.40;;;3.03;;
3443;SDS011;1736;52.068;6.968;2023-09-19T03:50:21;8.97;;;2.73;;
3443;SDS011;1736;52.068;6.968;2023-09-19T03:52:47;12.13;;;3.00;;
3443;SDS011;1736;52.068;6.968;2023-09-19T03:55:14;12.13;;;3.40;;
3443;SDS011;1736;52.068;6.968;2023-09-19T03:57:41;8.77;;;3.37;;
3443;SDS011;1736;52.068;6.968;2023-09-19T04:00:08;12.70;;;2.90;;
3443;SDS011;1736;52.068;6.968;2023-09-19T04:02:37;8.83;;;2.70;;
3443;SDS011;1736;52.068;6.968;2023-09-19T04:05:05;16.33;;;3.13;;
3443;SDS011;1736;52.068;6.968;2023-09-19T04:07:32;12.87;;;3.33;;
3443;SDS011;1736;52.068;6.968;2023-09-19T04:09:59;15.63;;;3.20;;
3443;SDS011;1736;52.068;6.968;2023-09-19T04:12:26;9.33;;;3.03;;
3443;SDS011;1736;52.068;6.968;2023-09-19T04:14:53;11.47;;;3.10;;
3443;SDS011;1736;52.068;6.968;2023-09-19T04:17:19;12.30;;;3.70;;
3443;SDS011;1736;52.068;6.968;2023-09-19T04:19:47;13.03;;;3.37;;
3443;SDS011;1736;52.068;6.968;2023-09-19T04:22:14;5.87;;;2.57;;
3443;SDS011;1736;52.068;6.968;2023-09-19T04:24:40;8.77;;;2.53;;
3443;SDS011;1736;52.068;6.968;2023-09-19T04:27:07;4.83;;;2.43;;
3443;SDS011;1736;52.068;6.968;2023-09-19T04:29:34;10.90;;;2.93;;
3443;SDS011;1736;52.068;6.968;2023-09-19T04:32:03;8.17;;;2.90;;
3443;SDS011;1736;52.068;6.968;2023-09-19T04:34:30;16.03;;;3.07;;
3443;SDS011;1736;52.068;6.968;2023-09-19T04:36:58;9.23;;;3.30;;
3443;SDS011;1736;52.068;6.968;2023-09-19T04:39:25;11.80;;;3.07;;
3443;SDS011;1736;52.068;6.968;2023-09-19T04:41:52;9.57;;;2.70;;
3443;SDS011;1736;52.068;6.968;2023-09-19T04:44:20;11.70;;;2.70;;
3443;SDS011;1736;52.068;6.968;2023-09-19T04:46:46;8.97;;;2.83;;
3443;SDS011;1736;52.068;6.968;2023-09-19T04:49:13;7.00;;;2.70;;
3443;SDS011;1736;52.068;6.968;2023-09-19T04:51:40;12.00;;;2.70;;
3443;SDS011;1736;52.068;6.968;2023-09-19T04:54:08;7.33;;;3.10;;
3443;SDS011;1736;52.068;6.968;2023-09-19T04:56:35;9.27;;;3.13;;
3443;SDS011;1736;52.068;6.968;2023-09-19T04:59:05;8.60;;;3.03;;
3443;SDS011;1736;52.068;6.968;2023-09-19T05:01:32;10.75;;;3.30;;
3443;SDS011;1736;52.068;6.968;2023-09-19T05:03:59;8.37;;;2.90;;
3443;SDS011;1736;52.068;6.968;2023-09-19T05:06:26;11.48;;;3.30;;
3443;SDS011;1736;52.068;6.968;2023-09-19T05:08:52;14.20;;;3.53;;
3443;SDS011;1736;52.068;6.968;2023-09-19T05:11:20;12.00;;;3.90;;
3443;SDS011;1736;52.068;6.968;2023-09-19T05:13:47;9.93;;;2.67;;
3443;SDS011;1736;52.068;6.968;2023-09-19T05:16:15;7.85;;;2.95;;
3443;SDS011;1736;52.068;6.968;2023-09-19T05:18:42;10.07;;;3.10;;
3443;SDS011;1736;52.068;6.968;2023-09-19T05:21:08;12.80;;;3.20;;
3443;SDS011;1736;52.068;6.968;2023-09-19T05:23:35;14.80;;;3.10;;
3443;SDS011;1736;52.068;6.968;2023-09-19T05:26:02;6.43;;;2.67;;
3443;SDS011;1736;52.068;6.968;2023-09-19T05:28:31;5.40;;;2.37;;
3443;SDS011;1736;52.068;6.968;2023-09-19T05:31:00;9.73;;;3.43;;
3443;SDS011;1736;52.068;6.968;2023-09-19T05:33:27;10.40;;;2.93;;
3443;SDS011;1736;52.068;6.968;2023-09-19T05:35:56;9.07;;;2.70;;
3443;SDS011;1736;52.068;6.968;2023-09-19T05:38:23;5.70;;;2.37;;
3443;SDS011;1736;52.068;6.968;2023-09-19T05:40:51;8.30;;;2.33;;
3443;SDS011;1736;52.068;6.968;2023-09-19T05:43:17;12.83;;;2.63;;
3443;SDS011;1736;52.068;6.968;2023-09-19T05:45:45;10.17;;;2.40;;
3443;SDS011;1736;52.068;6.968;2023-09-19T05:48:12;8.03;;;2.50;;
3443;SDS011;1736;52.068;6.968;2023-09-19T05:50:41;17.70;;;2.83;;
3443;SDS011;1736;52.068;6.968;2023-09-19T05:53:08;8.80;;;2.80;;
3443;SDS011;1736;52.068;6.968;2023-09-19T05:55:37;16.20;;;2.60;;
3443;SDS011;1736;52.068;6.968;2023-09-19T05:58:03;13.47;;;3.20;;
3443;SDS011;1736;52.068;6.968;2023-09-19T06:00:30;12.30;;;3.40;;
3443;SDS011;1736;52.068;6.968;2023-09-19T06:02:58;12.50;;;3.13;;
3443;SDS011;1736;52.068;6.968;2023-09-19T06:05:26;8.88;;;3.47;;
3443;SDS011;1736;52.068;6.968;2023-09-19T06:07:55;17.03;;;3.07;;
3443;SDS011;1736;52.068;6.968;2023-09-19T06:10:25;9.87;;;3.10;;
3443;SDS011;1736;52.068;6.968;2023-09-19T06:12:53;14.83;;;3.33;;
3443;SDS011;1736;52.068;6.968;2023-09-19T06:15:20;13.83;;;3.20;;
3443;SDS011;1736;52.068;6.968;2023-09-19T06:17:48;11.43;;;3.10;;
3443;SDS011;1736;52.068;6.968;2023-09-19T06:20:17;7.40;;;2.43;;
3443;SDS011;1736;52.068;6.968;2023-09-19T06:22:45;10.07;;;2.77;;
3443;SDS011;1736;52.068;6.968;2023-09-19T06:25:12;8.10;;;2.77;;
3443;SDS011;1736;52.068;6.968;2023-09-19T06:27:42;3.80;;;2.00;;
3443;SDS011;1736;52.068;6.968;2023-09-19T06:30:10;8.73;;;2.50;;
3443;SDS011;1736;52.068;6.968;2023-09-19T06:32:38;9.40;;;2.70;;
3443;SDS011;1736;52.068;6.968;2023-09-19T06:35:05;10.80;;;2.60;;
3443;SDS011;1736;52.068;6.968;2023-09-19T06:37:35;12.55;;;3.00;;
3443;SDS011;1736;52.068;6.968;2023-09-19T06:40:04;13.63;;;3.20;;
3443;SDS011;1736;52.068;6.968;2023-09-19T06:42:33;10.67;;;2.53;;
3443;SDS011;1736;52.068;6.968;2023-09-19T06:45:00;15.13;;;3.10;;
3443;SDS011;1736;52.068;6.968;2023-09-19T06:47:26;13.77;;;3.53;;
3443;SDS011;1736;52.068;6.968;2023-09-19T06:49:53;15.70;;;3.83;;
3443;SDS011;1736;52.068;6.968;2023-09-19T06:52:19;6.73;;;2.50;;
3443;SDS011;1736;52.068;6.968;2023-09-19T06:54:47;13.90;;;3.00;;
3443;SDS011;1736;52.068;6.968;2023-09-19T06:57:15;7.17;;;3.00;;
3443;SDS011;1736;52.068;6.968;2023-09-19T06:59:42;9.27;;;2.43;;
3443;SDS011;1736;52.068;6.968;2023-09-19T07:02:10;9.40;;;2.73;;
3443;SDS011;1736;52.068;6.968;2023-09-19T07:04:36;9.80;;;3.10;;
3443;SDS011;1736;52.068;6.968;2023-09-19T07:07:03;10.53;;;2.70;;
3443;SDS011;1736;52.068;6.968;2023-09-19T07:09:29;10.33;;;2.73;;
3443;SDS011;1736;52.068;6.968;2023-09-19T07:11:58;7.97;;;3.20;;
3443;SDS011;1736;52.068;6.968;2023-09-19T07:14:24;4.90;;;2.20;;
3443;SDS011;1736;52.068;6.968;2023-09-19T07:16:51;12.97;;;3.27;;
3443;SDS011;1736;52.068;6.968;2023-09-19T07:19:18;11.43;;;2.37;;
3443;SDS011;1736;52.068;6.968;2023-09-19T07:21:44;13.67;;;2.83;;
3443;SDS011;1736;52.068;6.968;2023-09-19T07:24:12;12.50;;;2.93;;
3443;SDS011;1736;52.068;6.968;2023-09-19T07:26:39;7.33;;;2.73;;
3443;SDS011;1736;52.068;6.968;2023-09-19T07:29:07;14.20;;;2.50;;
3443;SDS011;1736;52.068;6.968;2023-09-19T07:31:34;7.17;;;2.60;;
3443;SDS011;1736;52.068;6.968;2023-09-19T07:34:00;13.00;;;2.60;;
3443;SDS011;1736;52.068;6.968;2023-09-19T07:36:28;9.03;;;2.43;;
3443;SDS011;1736;52.068;6.968;2023-09-19T07:38:55;7.77;;;2.27;;
3443;SDS011;1736;52.068;6.968;2023-09-19T07:41:23;12.70;;;2.73;;
3443;SDS011;1736;52.068;6.968;2023-09-19T07:43:50;7.47;;;2.60;;
3443;SDS011;1736;52.068;6.968;2023-09-19T07:46:18;17.97;;;4.00;;
3443;SDS011;1736;52.068;6.968;2023-09-19T07:48:45;25.20;;;2.93;;
3443;SDS011;1736;52.068;6.968;2023-09-19T07:51:13;9.13;;;2.53;;
3443;SDS011;1736;52.068;6.968;2023-09-19T07:53:41;4.87;;;2.13;;
3443;SDS011;1736;52.068;6.968;2023-09-19T07:56:08;10.30;;;2.90;;
3443;SDS011;1736;52.068;6.968;2023-09-19T07:58:38;13.40;;;3.83;;
3443;SDS011;1736;52.068;6.968;2023-09-19T08:01:06;8.77;;;2.80;;
3443;SDS011;1736;52.068;6.968;2023-09-19T08:03:35;9.80;;;3.17;;
3443;SDS011;1736;52.068;6.968;2023-09-19T08:06:05;10.13;;;3.13;;
3443;SDS011;1736;52.068;6.968;2023-09-19T08:08:33;13.87;;;3.77;;
3443;SDS011;1736;52.068;6.968;2023-09-19T08:11:02;11.23;;;3.23;;
3443;SDS011;1736;52.068;6.968;2023-09-19T08:13:35;9.27;;;3.10;;
3443;SDS011;1736;52.068;6.968;2023-09-19T08:16:03;6.70;;;2.63;;
3443;SDS011;1736;52.068;6.968;2023-09-19T08:18:29;11.03;;;3.23;;
3443;SDS011;1736;52.068;6.968;2023-09-19T08:20:57;8.20;;;2.90;;
3443;SDS011;1736;52.068;6.968;2023-09-19T08:23:25;12.37;;;3.00;;
3443;SDS011;1736;52.068;6.968;2023-09-19T08:25:55;7.60;;;2.70;;
3443;SDS011;1736;52.068;6.968;2023-09-19T08:28:22;8.00;;;2.73;;
3443;SDS011;1736;52.068;6.968;2023-09-19T08:30:49;7.33;;;3.23;;
3443;SDS011;1736;52.068;6.968;2023-09-19T08:33:16;12.63;;;4.03;;
3443;SDS011;1736;52.068;6.968;2023-09-19T08:35:43;6.60;;;2.50;;
3443;SDS011;1736;52.068;6.968;2023-09-19T08:38:12;10.10;;;2.87;;
3443;SDS011;1736;52.068;6.968;2023-09-19T08:40:39;5.80;;;2.37;;
3443;SDS011;1736;52.068;6.968;2023-09-19T08:43:07;11.63;;;3.60;;
3443;SDS011;1736;52.068;6.968;2023-09-19T08:45:34;10.03;;;3.40;;
3443;SDS011;1736;52.068;6.968;2023-09-19T08:48:04;10.63;;;2.90;;
3443;SDS011;1736;52.068;6.968;2023-09-19T08:50:43;19.13;;;3.70;;
3443;SDS011;1736;52.068;6.968;2023-09-19T08:53:15;8.60;;;2.70;;
3443;SDS011;1736;52.068;6.968;2023-09-19T08:55:48;8.53;;;2.87;;
3443;SDS011;1736;52.068;6.968;2023-09-19T08:58:19;10.50;;;2.30;;
3443;SDS011;1736;52.068;6.968;2023-09-19T09:00:49;12.03;;;3.50;;
3443;SDS011;1736;52.068;6.968;2023-09-19T09:03:18;8.00;;;2.50;;
3443;SDS011;1736;52.068;6.968;2023-09-19T09:05:47;9.23;;;2.57;;
3443;SDS011;1736;52.068;6.968;2023-09-19T09:08:17;8.77;;;3.10;;
3443;SDS011;1736;52.068;6.968;2023-09-19T09:10:46;9.70;;;2.70;;
3443;SDS011;1736;52.068;6.968;2023-09-19T09:13:13;10.70;;;2.77;;
3443;SDS011;1736;52.068;6.968;2023-09-19T09:15:40;5.83;;;2.57;;
3443;SDS011;1736;52.068;6.968;2023-09-19T09:18:10;12.20;;;2.70;;
3443;SDS011;1736;52.068;6.968;2023-09-19T09:20:37;13.17;;;2.40;;
3443;SDS011;1736;52.068;6.968;2023-09-19T09:23:03;18.80;;;3.77;;
3443;SDS011;1736;52.068;6.968;2023-09-19T09:25:48;8.03;;;3.20;;
3443;SDS011;1736;52.068;6.968;2023-09-19T09:28:19;15.03;;;3.40;;
3443;SDS011;1736;52.068;6.968;2023-09-19T09:30:47;16.73;;;3.00;;
3443;SDS011;1736;52.068;6.968;2023-09-19T09:33:15;9.40;;;3.23;;
3443;SDS011;1736;52.068;6.968;2023-09-19T09:35:49;13.17;;;3.23;;
3443;SDS011;1736;52.068;6.968;2023-09-19T09:38:18;6.90;;;2.53;;
3443;SDS011;1736;52.068;6.968;2023-09-19T09:40:46;7.07;;;2.80;;
3443;SDS011;1736;52.068;6.968;2023-09-19T09:43:27;16.37;;;3.07;;
3443;SDS011;1736;52.068;6.968;2023-09-19T09:46:09;9.43;;;2.87;;
3443;SDS011;1736;52.068;6.968;2023-09-19T09:49:10;8.20;;;3.30;;
3443;SDS011;1736;52.068;6.968;2023-09-19T09:51:59;10.20;;;3.20;;
3443;SDS011;1736;52.068;6.968;2023-09-19T09:54:30;7.20;;;2.87;;
3443;SDS011;1736;52.068;6.968;2023-09-19T09:57:03;9.90;;;2.97;;
3443;SDS011;1736;52.068;6.968;2023-09-19T09:59:46;10.50;;;3.53;;
3443;SDS011;1736;52.068;6.968;2023-09-19T10:02:15;16.47;;;3.17;;
3443;SDS011;1736;52.068;6.968;2023-09-19T10:04:47;5.67;;;2.77;;
3443;SDS011;1736;52.068;6.968;2023-09-19T10:07:32;8.97;;;2.93;;
3443;SDS011;1736;52.068;6.968;2023-09-19T10:10:01;6.50;;;2.60;;
3443;SDS011;1736;52.068;6.968;2023-09-19T10:12:40;10.17;;;3.17;;
3443;SDS011;1736;52.068;6.968;2023-09-19T10:15:10;14.13;;;2.70;;
3443;SDS011;1736;52.068;6.968;2023-09-19T10:17:40;19.10;;;3.30;;
3443;SDS011;1736;52.068;6.968;2023-09-19T10:20:10;8.40;;;3.20;;
3443;SDS011;1736;52.068;6.968;2023-09-19T10:22:57;9.10;;;3.00;;
3443;SDS011;1736;52.068;6.968;2023-09-19T10:25:27;10.77;;;3.10;;
3443;SDS011;1736;52.068;6.968;2023-09-19T10:27:57;6.83;;;2.47;;
3443;SDS011;1736;52.068;6.968;2023-09-19T10:30:27;7.50;;;2.67;;
3443;SDS011;1736;52.068;6.968;2023-09-19T10:32:58;11.57;;;3.00;;
3443;SDS011;1736;52.068;6.968;2023-09-19T10:35:27;6.47;;;2.53;;
3443;SDS011;1736;52.068;6.968;2023-09-19T10:37:54;8.00;;;2.40;;
3443;SDS011;1736;52.068;6.968;2023-09-19T10:40:21;15.83;;;3.97;;
3443;SDS011;1736;52.068;6.968;2023-09-19T10:42:51;12.27;;;3.30;;
3443;SDS011;1736;52.068;6.968;2023-09-19T10:45:21;10.53;;;2.70;;
3443;SDS011;1736;52.068;6.968;2023-09-19T10:47:50;7.63;;;3.07;;
3443;SDS011;1736;52.068;6.968;2023-09-19T10:50:19;10.07;;;3.27;;
3443;SDS011;1736;52.068;6.968;2023-09-19T10:52:47;12.23;;;3.43;;
3443;SDS011;1736;52.068;6.968;2023-09-19T10:55:15;12.10;;;3.10;;
3443;SDS011;1736;52.068;6.968;2023-09-19T10:57:44;10.60;;;3.13;;
3443;SDS011;1736;52.068;6.968;2023-09-19T11:00:11;10.70;;;2.90;;
3443;SDS011;1736;52.068;6.968;2023-09-19T11:06:01;11.27;;;3.20;;
3443;SDS011;1736;52.068;6.968;2023-09-19T11:08:30;15.53;;;2.90;;
3443;SDS011;1736;52.068;6.968;2023-09-19T11:10:58;11.53;;;3.17;;
3443;SDS011;1736;52.068;6.968;2023-09-19T11:13:27;6.70;;;2.80;;
3443;SDS011;1736;52.068;6.968;2023-09-19T11:16:03;11.33;;;3.20;;
3443;SDS011;1736;52.068;6.968;2023-09-19T11:27:11;11.10;;;3.13;;
3443;SDS011;1736;52.068;6.968;2023-09-19T11:29:39;12.10;;;2.77;;
3443;SDS011;1736;52.068;6.968;2023-09-19T11:32:06;9.17;;;2.40;;
3443;SDS011;1736;52.068;6.968;2023-09-19T11:34:48;7.03;;;2.57;;
3443;SDS011;1736;52.068;6.968;2023-09-19T11:40:40;7.57;;;2.53;;
3443;SDS011;1736;52.068;6.968;2023-09-19T11:43:32;10.43;;;2.10;;
3443;SDS011;1736;52.068;6.968;2023-09-19T11:46:05;10.40;;;2.30;;
3443;SDS011;1736;52.068;6.968;2023-09-19T11:48:32;6.70;;;2.63;;
3443;SDS011;1736;52.068;6.968;2023-09-19T11:51:10;12.10;;;2.63;;
3443;SDS011;1736;52.068;6.968;2023-09-19T11:53:44;9.20;;;2.67;;
3443;SDS011;1736;52.068;6.968;2023-09-19T11:56:13;8.80;;;2.77;;
3443;SDS011;1736;52.068;6.968;2023-09-19T11:58:40;7.10;;;2.37;;
3443;SDS011;1736;52.068;6.968;2023-09-19T12:01:07;6.90;;;2.40;;
3443;SDS011;1736;52.068;6.968;2023-09-19T12:03:40;6.67;;;2.57;;
3443;SDS011;1736;52.068;6.968;2023-09-19T12:06:12;7.10;;;2.40;;
3443;SDS011;1736;52.068;6.968;2023-09-19T12:08:40;5.00;;;2.20;;
3443;SDS011;1736;52.068;6.968;2023-09-19T12:11:11;8.20;;;2.43;;
3443;SDS011;1736;52.068;6.968;2023-09-19T12:13:41;6.97;;;2.07;;
3443;SDS011;1736;52.068;6.968;2023-09-19T12:16:11;7.70;;;2.37;;
3443;SDS011;1736;52.068;6.968;2023-09-19T12:18:40;8.80;;;2.83;;
3443;SDS011;1736;52.068;6.968;2023-09-19T12:21:08;5.47;;;2.03;;
3443;SDS011;1736;52.068;6.968;2023-09-19T12:23:57;5.47;;;2.20;;
3443;SDS011;1736;52.068;6.968;2023-09-19T12:26:26;7.43;;;2.30;;
3443;SDS011;1736;52.068;6.968;2023-09-19T12:28:54;8.93;;;3.00;;
3443;SDS011;1736;52.068;6.968;2023-09-19T12:31:21;6.73;;;2.37;;
3443;SDS011;1736;52.068;6.968;2023-09-19T12:33:52;14.73;;;2.50;;
3443;SDS011;1736;52.068;6.968;2023-09-19T12:36:19;18.47;;;3.03;;
3443;SDS011;1736;52.068;6.968;2023-09-19T12:38:50;6.80;;;3.00;;
3443;SDS011;1736;52.068;6.968;2023-09-19T12:41:19;11.20;;;2.67;;
3443;SDS011;1736;52.068;6.968;2023-09-19T12:43:47;9.57;;;2.53;;
3443;SDS011;1736;52.068;6.968;2023-09-19T12:46:14;9.00;;;2.50;;
3443;SDS011;1736;52.068;6.968;2023-09-19T12:48:43;6.53;;;2.30;;
3443;SDS011;1736;52.068;6.968;2023-09-19T12:51:13;7.40;;;2.40;;
3443;SDS011;1736;52.068;6.968;2023-09-19T12:53:41;5.43;;;2.20;;
3443;SDS011;1736;52.068;6.968;2023-09-19T12:56:10;11.83;;;2.37;;
3443;SDS011;1736;52.068;6.968;2023-09-19T12:58:50;10.60;;;3.10;;
3443;SDS011;1736;52.068;6.968;2023-09-19T13:01:19;7.77;;;2.33;;
3443;SDS011;1736;52.068;6.968;2023-09-19T13:03:45;7.03;;;2.60;;
3443;SDS011;1736;52.068;6.968;2023-09-19T13:06:12;5.47;;;2.23;;
3443;SDS011;1736;52.068;6.968;2023-09-19T13:08:39;8.73;;;2.83;;
3443;SDS011;1736;52.068;6.968;2023-09-19T13:11:08;10.77;;;2.23;;
3443;SDS011;1736;52.068;6.968;2023-09-19T13:13:38;9.47;;;2.33;;
3443;SDS011;1736;52.068;6.968;2023-09-19T13:16:06;13.10;;;2.70;;
3443;SDS011;1736;52.068;6.968;2023-09-19T13:18:46;6.10;;;2.20;;
3443;SDS011;1736;52.068;6.968;2023-09-19T13:21:16;5.67;;;2.00;;
3443;SDS011;1736;52.068;6.968;2023-09-19T13:23:51;6.10;;;2.30;;
3443;SDS011;1736;52.068;6.968;2023-09-19T13:26:19;3.67;;;1.70;;
3443;SDS011;1736;52.068;6.968;2023-09-19T13:28:47;6.60;;;2.17;;
3443;SDS011;1736;52.068;6.968;2023-09-19T13:31:15;9.27;;;2.43;;
3443;SDS011;1736;52.068;6.968;2023-09-19T13:33:43;4.40;;;2.00;;
3443;SDS011;1736;52.068;6.968;2023-09-19T13:36:10;4.53;;;2.13;;
3443;SDS011;1736;52.068;6.968;2023-09-19T13:38:38;8.70;;;2.30;;
3443;SDS011;1736;52.068;6.968;2023-09-19T13:41:04;6.90;;;2.30;;
3443;SDS011;1736;52.068;6.968;2023-09-19T13:43:31;8.50;;;2.57;;
3443;SDS011;1736;52.068;6.968;2023-09-19T13:45:57;7.63;;;2.30;;
3443;SDS011;1736;52.068;6.968;2023-09-19T13:48:25;7.03;;;2.10;;
3443;SDS011;1736;52.068;6.968;2023-09-19T13:50:52;7.23;;;2.50;;
3443;SDS011;1736;52.068;6.968;2023-09-19T13:53:20;4.73;;;2.00;;
3443;SDS011;1736;52.068;6.968;2023-09-19T13:55:47;8.33;;;2.33;;
3443;SDS011;1736;52.068;6.968;2023-09-19T13:58:14;5.33;;;2.10;;
3443;SDS011;1736;52.068;6.968;2023-09-19T14:00:41;9.67;;;2.40;;
3443;SDS011;1736;52.068;6.968;2023-09-19T14:03:08;8.00;;;1.93;;
3443;SDS011;1736;52.068;6.968;2023-09-19T14:05:37;2.50;;;1.50;;
3443;SDS011;1736;52.068;6.968;2023-09-19T14:08:04;4.80;;;1.80;;
3443;SDS011;1736;52.068;6.968;2023-09-19T14:10:31;6.63;;;2.00;;
3443;SDS011;1736;52.068;6.968;2023-09-19T14:12:58;7.40;;;2.40;;
3443;SDS011;1736;52.068;6.968;2023-09-19T14:15:25;5.83;;;2.03;;
3443;SDS011;1736;52.068;6.968;2023-09-19T14:17:55;4.43;;;1.63;;
3443;SDS011;1736;52.068;6.968;2023-09-19T14:20:22;7.30;;;1.90;;
3443;SDS011;1736;52.068;6.968;2023-09-19T14:22:50;6.07;;;1.80;;
3443;SDS011;1736;52.068;6.968;2023-09-19T14:25:17;7.70;;;1.63;;
3443;SDS011;1736;52.068;6.968;2023-09-19T14:27:43;5.87;;;1.70;;
3443;SDS011;1736;52.068;6.968;2023-09-19T14:30:10;2.67;;;1.50;;
3443;SDS011;1736;52.068;6.968;2023-09-19T14:32:38;8.03;;;1.93;;
3443;SDS011;1736;52.068;6.968;2023-09-19T14:35:05;8.33;;;1.70;;
3443;SDS011;1736;52.068;6.968;2023-09-19T14:37:34;6.23;;;1.60;;
3443;SDS011;1736;52.068;6.968;2023-09-19T14:40:02;6.90;;;1.70;;
3443;SDS011;1736;52.068;6.968;2023-09-19T14:42:33;5.00;;;1.80;;
3443;SDS011;1736;52.068;6.968;2023-09-19T14:45:01;5.10;;;2.00;;
3443;SDS011;1736;52.068;6.968;2023-09-19T14:47:29;7.70;;;1.60;;
3443;SDS011;1736;52.068;6.968;2023-09-19T14:49:57;2.27;;;1.40;;
3443;SDS011;1736;52.068;6.968;2023-09-19T14:52:24;6.80;;;1.80;;
3443;SDS011;1736;52.068;6.968;2023-09-19T14:54:53;6.03;;;1.67;;
3443;SDS011;1736;52.068;6.968;2023-09-19T14:57:21;3.17;;;1.30;;
3443;SDS011;1736;52.068;6.968;2023-09-19T14:59:49;11.30;;;1.77;;
3443;SDS011;1736;52.068;6.968;2023-09-19T15:02:16;1.90;;;1.70;;
3443;SDS011;1736;52.068;6.968;2023-09-19T15:04:42;4.20;;;1.73;;
3443;SDS011;1736;52.068;6.968;2023-09-19T15:07:11;4.13;;;1.43;;
3443;SDS011;1736;52.068;6.968;2023-09-19T15:09:39;4.63;;;1.40;;
3443;SDS011;1736;52.068;6.968;2023-09-19T15:12:06;2.40;;;1.87;;
3443;SDS011;1736;52.068;6.968;2023-09-19T15:14:34;4.90;;;1.57;;
3443;SDS011;1736;52.068;6.968;2023-09-19T15:17:01;8.80;;;2.50;;
3443;SDS011;1736;52.068;6.968;2023-09-19T15:19:29;5.90;;;2.40;;
3443;SDS011;1736;52.068;6.968;2023-09-19T15:21:56;10.57;;;3.10;;
3443;SDS011;1736;52.068;6.968;2023-09-19T15:24:23;4.20;;;1.63;;
3443;SDS011;1736;52.068;6.968;2023-09-19T15:26:51;3.17;;;1.80;;
3443;SDS011;1736;52.068;6.968;2023-09-19T15:29:20;2.43;;;1.50;;
3443;SDS011;1736;52.068;6.968;2023-09-19T15:31:48;14.13;;;1.63;;
3443;SDS011;1736;52.068;6.968;2023-09-19T15:34:15;6.90;;;1.70;;
3443;SDS011;1736;52.068;6.968;2023-09-19T15:36:42;11.37;;;5.20;;